sensor_id;sensor_type;location;lat;lon;timestamp;P1;durP1;ratioP1;P2;durP2;ratioP2
19599;SDS011;9947;57.722;12.012;2022-09-09T00:00:19;4.93;;;1.97;;
19599;SDS011;9947;57.722;12.012;2022-09-09T00:02:50;2.23;;;2.03;;
19599;SDS011;9947;57.722;12.012;2022-09-09T00:05:29;2.30;;;2.10;;
19599;SDS011;9947;57.722;12.012;2022-09-09T00:08:02;1.80;;;1.70;;
19599;SDS011;9947;57.722;12.012;2022-09-09T00:10:31;2.17;;;1.80;;
19599;SDS011;9947;57.722;12.012;2022-09-09T00:13:02;1.90;;;1.80;;
19599;SDS011;9947;57.722;12.012;2022-09-09T00:15:45;2.10;;;2.00;;
19599;SDS011;9947;57.722;12.012;2022-09-09T00:18:23;3.30;;;2.00;;
19599;SDS011;9947;57.722;12.012;2022-09-09T00:20:55;2.57;;;2.00;;
19599;SDS011;9947;57.722;12.012;2022-09-09T00:23:30;2.33;;;2.13;;
19599;SDS011;9947;57.722;12.012;2022-09-09T00:26:02;2.90;;;1.80;;
19599;SDS011;9947;57.722;12.012;2022-09-09T00:28:33;3.60;;;2.20;;
19599;SDS011;9947;57.722;12.012;2022-09-09T00:31:11;2.57;;;1.80;;
19599;SDS011;9947;57.722;12.012;2022-09-09T00:33:40;3.43;;;2.10;;
19599;SDS011;9947;57.722;12.012;2022-09-09T00:36:09;2.47;;;1.90;;
19599;SDS011;9947;57.722;12.012;2022-09-09T00:38:42;1.90;;;1.80;;
19599;SDS011;9947;57.722;12.012;2022-09-09T00:41:14;2.50;;;2.20;;
19599;SDS011;9947;57.722;12.012;2022-09-09T00:43:49;2.40;;;2.20;;
19599;SDS011;9947;57.722;12.012;2022-09-09T00:46:30;2.53;;;2.10;;
19599;SDS011;9947;57.722;12.012;2022-09-09T00:49:24;4.10;;;2.10;;
19599;SDS011;9947;57.722;12.012;2022-09-09T00:52:05;3.10;;;1.97;;
19599;SDS011;9947;57.722;12.012;2022-09-09T00:54:45;5.33;;;3.13;;
19599;SDS011;9947;57.722;12.012;2022-09-09T00:57:25;13.00;;;7.63;;
19599;SDS011;9947;57.722;12.012;2022-09-09T00:59:56;3.07;;;2.57;;
19599;SDS011;9947;57.722;12.012;2022-09-09T01:02:31;2.20;;;2.10;;
19599;SDS011;9947;57.722;12.012;2022-09-09T01:05:06;2.70;;;2.00;;
19599;SDS011;9947;57.722;12.012;2022-09-09T01:07:38;2.30;;;2.00;;
19599;SDS011;9947;57.722;12.012;2022-09-09T01:10:13;2.20;;;2.10;;
19599;SDS011;9947;57.722;12.012;2022-09-09T01:12:47;2.30;;;2.10;;
19599;SDS011;9947;57.722;12.012;2022-09-09T01:15:18;2.40;;;2.20;;
19599;SDS011;9947;57.722;12.012;2022-09-09T01:17:52;3.30;;;2.10;;
19599;SDS011;9947;57.722;12.012;2022-09-09T01:20:24;4.47;;;2.20;;
19599;SDS011;9947;57.722;12.012;2022-09-09T01:23:04;2.20;;;2.10;;
19599;SDS011;9947;57.722;12.012;2022-09-09T01:28:48;4.30;;;2.20;;
19599;SDS011;9947;57.722;12.012;2022-09-09T01:31:18;3.23;;;1.97;;
19599;SDS011;9947;57.722;12.012;2022-09-09T01:33:48;2.40;;;2.10;;
19599;SDS011;9947;57.722;12.012;2022-09-09T01:36:19;2.33;;;2.13;;
19599;SDS011;9947;57.722;12.012;2022-09-09T01:38:52;5.10;;;2.43;;
19599;SDS011;9947;57.722;12.012;2022-09-09T01:41:21;2.10;;;2.00;;
19599;SDS011;9947;57.722;12.012;2022-09-09T01:43:48;3.43;;;2.27;;
19599;SDS011;9947;57.722;12.012;2022-09-09T01:46:15;3.47;;;2.27;;
19599;SDS011;9947;57.722;12.012;2022-09-09T01:48:43;4.37;;;2.50;;
19599;SDS011;9947;57.722;12.012;2022-09-09T01:51:11;3.77;;;2.00;;
19599;SDS011;9947;57.722;12.012;2022-09-09T01:53:38;2.07;;;1.97;;
19599;SDS011;9947;57.722;12.012;2022-09-09T01:56:11;2.50;;;2.10;;
19599;SDS011;9947;57.722;12.012;2022-09-09T01:58:53;2.40;;;2.20;;
19599;SDS011;9947;57.722;12.012;2022-09-09T02:01:28;2.40;;;2.20;;
19599;SDS011;9947;57.722;12.012;2022-09-09T02:04:09;2.70;;;2.50;;
19599;SDS011;9947;57.722;12.012;2022-09-09T02:06:45;3.60;;;2.33;;
19599;SDS011;9947;57.722;12.012;2022-09-09T02:09:14;2.70;;;2.50;;
19599;SDS011;9947;57.722;12.012;2022-09-09T02:11:45;2.50;;;2.00;;
19599;SDS011;9947;57.722;12.012;2022-09-09T02:14:18;4.70;;;2.40;;
19599;SDS011;9947;57.722;12.012;2022-09-09T02:16:50;3.90;;;2.57;;
19599;SDS011;9947;57.722;12.012;2022-09-09T02:19:22;2.87;;;2.10;;
19599;SDS011;9947;57.722;12.012;2022-09-09T02:21:54;3.40;;;2.10;;
19599;SDS011;9947;57.722;12.012;2022-09-09T02:24:22;2.33;;;2.17;;
19599;SDS011;9947;57.722;12.012;2022-09-09T02:26:50;2.97;;;2.77;;
19599;SDS011;9947;57.722;12.012;2022-09-09T02:29:22;2.40;;;2.20;;
19599;SDS011;9947;57.722;12.012;2022-09-09T02:31:51;3.67;;;2.20;;
19599;SDS011;9947;57.722;12.012;2022-09-09T02:34:21;2.30;;;2.10;;
19599;SDS011;9947;57.722;12.012;2022-09-09T02:36:50;5.27;;;2.40;;
19599;SDS011;9947;57.722;12.012;2022-09-09T02:39:21;2.60;;;2.40;;
19599;SDS011;9947;57.722;12.012;2022-09-09T02:41:48;2.80;;;2.60;;
19599;SDS011;9947;57.722;12.012;2022-09-09T02:44:16;2.50;;;2.30;;
19599;SDS011;9947;57.722;12.012;2022-09-09T02:46:49;6.60;;;2.40;;
19599;SDS011;9947;57.722;12.012;2022-09-09T02:49:31;3.20;;;2.30;;
19599;SDS011;9947;57.722;12.012;2022-09-09T02:52:07;2.40;;;2.30;;
19599;SDS011;9947;57.722;12.012;2022-09-09T02:54:40;5.17;;;2.63;;
19599;SDS011;9947;57.722;12.012;2022-09-09T02:57:10;2.67;;;2.47;;
19599;SDS011;9947;57.722;12.012;2022-09-09T02:59:38;2.80;;;2.60;;
19599;SDS011;9947;57.722;12.012;2022-09-09T03:02:20;5.60;;;2.40;;
19599;SDS011;9947;57.722;12.012;2022-09-09T03:04:47;8.63;;;3.77;;
19599;SDS011;9947;57.722;12.012;2022-09-09T03:07:16;2.60;;;2.40;;
19599;SDS011;9947;57.722;12.012;2022-09-09T03:09:45;9.27;;;6.27;;
19599;SDS011;9947;57.722;12.012;2022-09-09T03:12:12;2.83;;;2.63;;
19599;SDS011;9947;57.722;12.012;2022-09-09T03:14:39;4.50;;;2.60;;
19599;SDS011;9947;57.722;12.012;2022-09-09T03:17:06;4.03;;;2.43;;
19599;SDS011;9947;57.722;12.012;2022-09-09T03:19:35;2.73;;;2.30;;
19599;SDS011;9947;57.722;12.012;2022-09-09T03:22:02;4.57;;;2.30;;
19599;SDS011;9947;57.722;12.012;2022-09-09T03:24:30;3.37;;;2.40;;
19599;SDS011;9947;57.722;12.012;2022-09-09T03:26:57;2.70;;;2.50;;
19599;SDS011;9947;57.722;12.012;2022-09-09T03:29:24;2.57;;;2.37;;
19599;SDS011;9947;57.722;12.012;2022-09-09T03:31:50;2.90;;;2.70;;
19599;SDS011;9947;57.722;12.012;2022-09-09T03:34:17;7.00;;;2.53;;
19599;SDS011;9947;57.722;12.012;2022-09-09T03:36:45;2.70;;;2.50;;
19599;SDS011;9947;57.722;12.012;2022-09-09T03:39:13;8.83;;;2.77;;
19599;SDS011;9947;57.722;12.012;2022-09-09T03:41:40;5.10;;;2.63;;
19599;SDS011;9947;57.722;12.012;2022-09-09T03:44:07;4.20;;;2.77;;
19599;SDS011;9947;57.722;12.012;2022-09-09T03:46:34;4.67;;;2.77;;
19599;SDS011;9947;57.722;12.012;2022-09-09T03:49:00;3.23;;;2.23;;
19599;SDS011;9947;57.722;12.012;2022-09-09T03:51:27;2.70;;;2.43;;
19599;SDS011;9947;57.722;12.012;2022-09-09T03:53:55;3.03;;;2.73;;
19599;SDS011;9947;57.722;12.012;2022-09-09T03:56:23;4.20;;;2.40;;
19599;SDS011;9947;57.722;12.012;2022-09-09T03:58:50;4.57;;;3.13;;
19599;SDS011;9947;57.722;12.012;2022-09-09T04:01:17;2.80;;;2.50;;
19599;SDS011;9947;57.722;12.012;2022-09-09T04:03:44;2.87;;;2.60;;
19599;SDS011;9947;57.722;12.012;2022-09-09T04:06:11;2.70;;;2.50;;
19599;SDS011;9947;57.722;12.012;2022-09-09T04:08:40;3.70;;;2.40;;
19599;SDS011;9947;57.722;12.012;2022-09-09T04:11:09;2.97;;;2.67;;
19599;SDS011;9947;57.722;12.012;2022-09-09T04:13:36;3.63;;;2.70;;
19599;SDS011;9947;57.722;12.012;2022-09-09T04:16:04;3.47;;;2.33;;
19599;SDS011;9947;57.722;12.012;2022-09-09T04:18:32;6.00;;;2.67;;
19599;SDS011;9947;57.722;12.012;2022-09-09T04:20:59;3.00;;;2.50;;
19599;SDS011;9947;57.722;12.012;2022-09-09T04:23:26;4.57;;;2.40;;
19599;SDS011;9947;57.722;12.012;2022-09-09T04:25:55;3.43;;;2.40;;
19599;SDS011;9947;57.722;12.012;2022-09-09T04:28:25;2.60;;;2.40;;
19599;SDS011;9947;57.722;12.012;2022-09-09T04:30:53;4.07;;;2.53;;
19599;SDS011;9947;57.722;12.012;2022-09-09T04:33:23;3.00;;;2.57;;
19599;SDS011;9947;57.722;12.012;2022-09-09T04:35:51;3.37;;;2.80;;
19599;SDS011;9947;57.722;12.012;2022-09-09T04:38:20;3.53;;;2.30;;
19599;SDS011;9947;57.722;12.012;2022-09-09T04:40:48;3.13;;;2.53;;
19599;SDS011;9947;57.722;12.012;2022-09-09T04:43:17;4.97;;;2.70;;
19599;SDS011;9947;57.722;12.012;2022-09-09T04:45:46;3.40;;;2.40;;
19599;SDS011;9947;57.722;12.012;2022-09-09T04:48:15;4.33;;;2.97;;
19599;SDS011;9947;57.722;12.012;2022-09-09T04:50:41;4.20;;;2.30;;
19599;SDS011;9947;57.722;12.012;2022-09-09T04:53:08;4.97;;;2.43;;
19599;SDS011;9947;57.722;12.012;2022-09-09T04:55:38;9.50;;;2.70;;
19599;SDS011;9947;57.722;12.012;2022-09-09T04:58:05;2.83;;;2.63;;
19599;SDS011;9947;57.722;12.012;2022-09-09T05:00:33;3.83;;;2.37;;
19599;SDS011;9947;57.722;12.012;2022-09-09T05:03:05;3.30;;;2.60;;
19599;SDS011;9947;57.722;12.012;2022-09-09T05:05:34;5.13;;;2.80;;
19599;SDS011;9947;57.722;12.012;2022-09-09T05:08:01;4.37;;;2.37;;
19599;SDS011;9947;57.722;12.012;2022-09-09T05:10:29;3.53;;;2.60;;
19599;SDS011;9947;57.722;12.012;2022-09-09T05:12:57;2.83;;;2.63;;
19599;SDS011;9947;57.722;12.012;2022-09-09T05:15:23;4.07;;;2.63;;
19599;SDS011;9947;57.722;12.012;2022-09-09T05:17:50;3.17;;;2.70;;
19599;SDS011;9947;57.722;12.012;2022-09-09T05:20:19;3.50;;;2.33;;
19599;SDS011;9947;57.722;12.012;2022-09-09T05:22:46;3.03;;;2.27;;
19599;SDS011;9947;57.722;12.012;2022-09-09T05:25:14;6.13;;;2.53;;
19599;SDS011;9947;57.722;12.012;2022-09-09T05:27:41;3.60;;;2.47;;
19599;SDS011;9947;57.722;12.012;2022-09-09T05:30:08;7.60;;;2.17;;
19599;SDS011;9947;57.722;12.012;2022-09-09T05:32:36;2.47;;;2.23;;
19599;SDS011;9947;57.722;12.012;2022-09-09T05:35:03;4.10;;;2.20;;
19599;SDS011;9947;57.722;12.012;2022-09-09T05:37:31;5.07;;;2.50;;
19599;SDS011;9947;57.722;12.012;2022-09-09T05:39:58;3.07;;;2.67;;
19599;SDS011;9947;57.722;12.012;2022-09-09T05:42:29;4.13;;;2.47;;
19599;SDS011;9947;57.722;12.012;2022-09-09T05:44:56;4.80;;;2.80;;
19599;SDS011;9947;57.722;12.012;2022-09-09T05:47:29;6.17;;;3.07;;
19599;SDS011;9947;57.722;12.012;2022-09-09T05:49:55;3.10;;;2.50;;
19599;SDS011;9947;57.722;12.012;2022-09-09T05:52:22;5.73;;;2.60;;
19599;SDS011;9947;57.722;12.012;2022-09-09T05:54:52;4.87;;;2.70;;
19599;SDS011;9947;57.722;12.012;2022-09-09T05:57:20;11.77;;;3.03;;
19599;SDS011;9947;57.722;12.012;2022-09-09T05:59:46;4.80;;;2.87;;
19599;SDS011;9947;57.722;12.012;2022-09-09T06:02:14;4.20;;;2.77;;
19599;SDS011;9947;57.722;12.012;2022-09-09T06:04:41;6.43;;;3.00;;
19599;SDS011;9947;57.722;12.012;2022-09-09T06:07:08;7.80;;;3.13;;
19599;SDS011;9947;57.722;12.012;2022-09-09T06:09:35;8.10;;;3.80;;
19599;SDS011;9947;57.722;12.012;2022-09-09T06:12:03;5.83;;;3.83;;
19599;SDS011;9947;57.722;12.012;2022-09-09T06:14:30;5.37;;;3.60;;
19599;SDS011;9947;57.722;12.012;2022-09-09T06:16:57;10.50;;;3.93;;
19599;SDS011;9947;57.722;12.012;2022-09-09T06:19:24;8.20;;;4.03;;
19599;SDS011;9947;57.722;12.012;2022-09-09T06:21:53;11.00;;;4.37;;
19599;SDS011;9947;57.722;12.012;2022-09-09T06:24:20;7.80;;;4.40;;
19599;SDS011;9947;57.722;12.012;2022-09-09T06:26:47;7.57;;;4.83;;
19599;SDS011;9947;57.722;12.012;2022-09-09T06:29:15;14.47;;;5.53;;
19599;SDS011;9947;57.722;12.012;2022-09-09T06:31:42;7.97;;;4.57;;
19599;SDS011;9947;57.722;12.012;2022-09-09T06:34:09;10.80;;;5.20;;
19599;SDS011;9947;57.722;12.012;2022-09-09T06:36:36;9.53;;;5.30;;
19599;SDS011;9947;57.722;12.012;2022-09-09T06:39:04;9.73;;;4.90;;
19599;SDS011;9947;57.722;12.012;2022-09-09T06:41:33;8.47;;;4.90;;
19599;SDS011;9947;57.722;12.012;2022-09-09T06:44:00;7.53;;;4.37;;
19599;SDS011;9947;57.722;12.012;2022-09-09T06:46:30;7.30;;;4.87;;
19599;SDS011;9947;57.722;12.012;2022-09-09T06:48:58;12.20;;;4.73;;
19599;SDS011;9947;57.722;12.012;2022-09-09T06:51:26;7.87;;;5.30;;
19599;SDS011;9947;57.722;12.012;2022-09-09T06:53:54;7.63;;;4.80;;
19599;SDS011;9947;57.722;12.012;2022-09-09T06:56:23;8.70;;;4.73;;
19599;SDS011;9947;57.722;12.012;2022-09-09T06:58:53;6.73;;;4.30;;
19599;SDS011;9947;57.722;12.012;2022-09-09T07:01:22;7.27;;;4.30;;
19599;SDS011;9947;57.722;12.012;2022-09-09T07:03:52;6.00;;;4.47;;
19599;SDS011;9947;57.722;12.012;2022-09-09T07:06:20;4.73;;;4.03;;
19599;SDS011;9947;57.722;12.012;2022-09-09T07:08:49;9.93;;;4.30;;
19599;SDS011;9947;57.722;12.012;2022-09-09T07:11:17;6.33;;;3.70;;
19599;SDS011;9947;57.722;12.012;2022-09-09T07:13:47;7.53;;;3.70;;
19599;SDS011;9947;57.722;12.012;2022-09-09T07:16:15;4.07;;;3.40;;
19599;SDS011;9947;57.722;12.012;2022-09-09T07:18:43;6.67;;;2.97;;
19599;SDS011;9947;57.722;12.012;2022-09-09T07:21:13;5.23;;;3.43;;
19599;SDS011;9947;57.722;12.012;2022-09-09T07:23:41;8.00;;;3.37;;
19599;SDS011;9947;57.722;12.012;2022-09-09T07:26:08;5.50;;;3.20;;
19599;SDS011;9947;57.722;12.012;2022-09-09T07:28:37;7.73;;;3.53;;
19599;SDS011;9947;57.722;12.012;2022-09-09T07:31:04;8.60;;;3.17;;
19599;SDS011;9947;57.722;12.012;2022-09-09T07:33:32;6.17;;;3.10;;
19599;SDS011;9947;57.722;12.012;2022-09-09T07:36:05;6.30;;;2.80;;
19599;SDS011;9947;57.722;12.012;2022-09-09T07:38:39;5.00;;;3.03;;
19599;SDS011;9947;57.722;12.012;2022-09-09T07:41:07;4.90;;;2.23;;
19599;SDS011;9947;57.722;12.012;2022-09-09T07:43:37;4.73;;;2.90;;
19599;SDS011;9947;57.722;12.012;2022-09-09T07:46:04;7.63;;;3.03;;
19599;SDS011;9947;57.722;12.012;2022-09-09T07:48:31;7.80;;;2.63;;
19599;SDS011;9947;57.722;12.012;2022-09-09T07:51:05;3.67;;;2.50;;
19599;SDS011;9947;57.722;12.012;2022-09-09T07:53:35;3.43;;;2.53;;
19599;SDS011;9947;57.722;12.012;2022-09-09T07:56:05;5.63;;;2.80;;
19599;SDS011;9947;57.722;12.012;2022-09-09T07:58:34;5.13;;;2.87;;
19599;SDS011;9947;57.722;12.012;2022-09-09T08:01:05;3.87;;;2.80;;
19599;SDS011;9947;57.722;12.012;2022-09-09T08:03:33;4.97;;;2.43;;
19599;SDS011;9947;57.722;12.012;2022-09-09T08:06:01;4.57;;;2.70;;
19599;SDS011;9947;57.722;12.012;2022-09-09T08:08:28;5.97;;;2.90;;
19599;SDS011;9947;57.722;12.012;2022-09-09T08:11:00;7.13;;;2.70;;
19599;SDS011;9947;57.722;12.012;2022-09-09T08:13:30;6.80;;;2.60;;
19599;SDS011;9947;57.722;12.012;2022-09-09T08:16:03;5.70;;;2.63;;
19599;SDS011;9947;57.722;12.012;2022-09-09T08:18:31;5.97;;;2.67;;
19599;SDS011;9947;57.722;12.012;2022-09-09T08:21:04;5.77;;;2.67;;
19599;SDS011;9947;57.722;12.012;2022-09-09T08:23:32;4.60;;;2.80;;
19599;SDS011;9947;57.722;12.012;2022-09-09T08:26:03;5.23;;;2.43;;
19599;SDS011;9947;57.722;12.012;2022-09-09T08:28:32;4.70;;;2.40;;
19599;SDS011;9947;57.722;12.012;2022-09-09T08:31:04;5.10;;;2.73;;
19599;SDS011;9947;57.722;12.012;2022-09-09T08:33:37;4.00;;;2.27;;
19599;SDS011;9947;57.722;12.012;2022-09-09T08:36:04;5.20;;;2.50;;
19599;SDS011;9947;57.722;12.012;2022-09-09T08:38:32;7.70;;;2.40;;
19599;SDS011;9947;57.722;12.012;2022-09-09T08:41:03;5.10;;;2.37;;
19599;SDS011;9947;57.722;12.012;2022-09-09T08:43:44;10.17;;;2.70;;
19599;SDS011;9947;57.722;12.012;2022-09-09T08:46:14;6.80;;;2.53;;
19599;SDS011;9947;57.722;12.012;2022-09-09T08:48:50;4.63;;;2.40;;
19599;SDS011;9947;57.722;12.012;2022-09-09T08:51:23;6.83;;;2.60;;
19599;SDS011;9947;57.722;12.012;2022-09-09T08:53:54;4.40;;;2.67;;
19599;SDS011;9947;57.722;12.012;2022-09-09T08:56:25;3.90;;;2.30;;
19599;SDS011;9947;57.722;12.012;2022-09-09T08:58:55;6.43;;;2.57;;
19599;SDS011;9947;57.722;12.012;2022-09-09T09:01:27;4.40;;;2.50;;
19599;SDS011;9947;57.722;12.012;2022-09-09T09:04:07;4.87;;;2.40;;
19599;SDS011;9947;57.722;12.012;2022-09-09T09:06:48;5.87;;;2.77;;
19599;SDS011;9947;57.722;12.012;2022-09-09T09:09:24;4.57;;;2.63;;
19599;SDS011;9947;57.722;12.012;2022-09-09T09:11:58;5.03;;;2.57;;
19599;SDS011;9947;57.722;12.012;2022-09-09T09:14:29;4.50;;;2.47;;
19599;SDS011;9947;57.722;12.012;2022-09-09T09:17:00;6.10;;;2.27;;
19599;SDS011;9947;57.722;12.012;2022-09-09T09:19:29;4.63;;;2.70;;
19599;SDS011;9947;57.722;12.012;2022-09-09T09:21:59;5.37;;;2.20;;
19599;SDS011;9947;57.722;12.012;2022-09-09T09:24:35;6.37;;;2.60;;
19599;SDS011;9947;57.722;12.012;2022-09-09T09:27:12;5.97;;;2.47;;
19599;SDS011;9947;57.722;12.012;2022-09-09T09:29:42;5.33;;;2.47;;
19599;SDS011;9947;57.722;12.012;2022-09-09T09:32:13;7.17;;;2.40;;
19599;SDS011;9947;57.722;12.012;2022-09-09T09:34:48;6.20;;;2.70;;
19599;SDS011;9947;57.722;12.012;2022-09-09T09:37:16;5.00;;;2.67;;
19599;SDS011;9947;57.722;12.012;2022-09-09T09:39:53;4.10;;;2.67;;
19599;SDS011;9947;57.722;12.012;2022-09-09T09:42:34;6.53;;;2.50;;
19599;SDS011;9947;57.722;12.012;2022-09-09T09:45:08;6.20;;;2.50;;
19599;SDS011;9947;57.722;12.012;2022-09-09T09:47:43;10.33;;;2.87;;
19599;SDS011;9947;57.722;12.012;2022-09-09T09:50:16;7.17;;;2.77;;
19599;SDS011;9947;57.722;12.012;2022-09-09T09:52:51;3.27;;;2.70;;
19599;SDS011;9947;57.722;12.012;2022-09-09T09:55:22;6.50;;;2.90;;
19599;SDS011;9947;57.722;12.012;2022-09-09T09:57:50;8.70;;;2.50;;
19599;SDS011;9947;57.722;12.012;2022-09-09T10:00:20;5.60;;;2.67;;
19599;SDS011;9947;57.722;12.012;2022-09-09T10:02:49;5.83;;;2.40;;
19599;SDS011;9947;57.722;12.012;2022-09-09T10:05:18;5.30;;;2.37;;
19599;SDS011;9947;57.722;12.012;2022-09-09T10:07:46;5.73;;;2.90;;
19599;SDS011;9947;57.722;12.012;2022-09-09T10:10:27;4.97;;;2.77;;
19599;SDS011;9947;57.722;12.012;2022-09-09T10:13:03;6.43;;;2.93;;
19599;SDS011;9947;57.722;12.012;2022-09-09T10:15:41;3.63;;;2.57;;
19599;SDS011;9947;57.722;12.012;2022-09-09T10:18:22;6.87;;;2.77;;
19599;SDS011;9947;57.722;12.012;2022-09-09T10:21:06;5.57;;;2.40;;
19599;SDS011;9947;57.722;12.012;2022-09-09T10:23:52;7.97;;;2.88;;
19599;SDS011;9947;57.722;12.012;2022-09-09T10:26:34;7.53;;;3.20;;
19599;SDS011;9947;57.722;12.012;2022-09-09T10:29:12;4.43;;;3.10;;
19599;SDS011;9947;57.722;12.012;2022-09-09T10:31:52;4.07;;;2.90;;
19599;SDS011;9947;57.722;12.012;2022-09-09T10:34:34;7.17;;;3.13;;
19599;SDS011;9947;57.722;12.012;2022-09-09T10:37:24;5.63;;;3.00;;
19599;SDS011;9947;57.722;12.012;2022-09-09T10:40:08;9.83;;;3.40;;
19599;SDS011;9947;57.722;12.012;2022-09-09T10:42:49;9.10;;;3.30;;
19599;SDS011;9947;57.722;12.012;2022-09-09T10:45:17;11.23;;;3.60;;
19599;SDS011;9947;57.722;12.012;2022-09-09T10:47:57;5.13;;;3.17;;
19599;SDS011;9947;57.722;12.012;2022-09-09T10:50:42;7.60;;;3.73;;
19599;SDS011;9947;57.722;12.012;2022-09-09T10:53:19;6.33;;;3.63;;
19599;SDS011;9947;57.722;12.012;2022-09-09T10:55:56;10.90;;;4.17;;
19599;SDS011;9947;57.722;12.012;2022-09-09T10:58:29;6.90;;;3.77;;
19599;SDS011;9947;57.722;12.012;2022-09-09T11:01:02;13.20;;;4.03;;
19599;SDS011;9947;57.722;12.012;2022-09-09T11:03:37;6.47;;;3.60;;
19599;SDS011;9947;57.722;12.012;2022-09-09T11:06:09;7.47;;;3.60;;
19599;SDS011;9947;57.722;12.012;2022-09-09T11:08:43;9.83;;;4.17;;
19599;SDS011;9947;57.722;12.012;2022-09-09T11:11:13;11.13;;;3.73;;
19599;SDS011;9947;57.722;12.012;2022-09-09T11:13:45;7.80;;;3.70;;
19599;SDS011;9947;57.722;12.012;2022-09-09T11:16:21;7.47;;;3.83;;
19599;SDS011;9947;57.722;12.012;2022-09-09T11:18:55;12.27;;;4.47;;
19599;SDS011;9947;57.722;12.012;2022-09-09T11:21:27;18.23;;;4.43;;
19599;SDS011;9947;57.722;12.012;2022-09-09T11:23:58;6.67;;;4.37;;
19599;SDS011;9947;57.722;12.012;2022-09-09T11:26:29;7.63;;;4.50;;
19599;SDS011;9947;57.722;12.012;2022-09-09T11:29:04;8.90;;;4.20;;
19599;SDS011;9947;57.722;12.012;2022-09-09T11:31:56;11.07;;;4.50;;
19599;SDS011;9947;57.722;12.012;2022-09-09T11:34:36;10.20;;;4.23;;
19599;SDS011;9947;57.722;12.012;2022-09-09T11:37:22;9.80;;;4.23;;
19599;SDS011;9947;57.722;12.012;2022-09-09T11:40:08;8.93;;;4.13;;
19599;SDS011;9947;57.722;12.012;2022-09-09T11:42:42;8.63;;;4.40;;
19599;SDS011;9947;57.722;12.012;2022-09-09T11:45:10;11.23;;;4.17;;
19599;SDS011;9947;57.722;12.012;2022-09-09T11:47:50;8.87;;;4.43;;
19599;SDS011;9947;57.722;12.012;2022-09-09T11:50:28;10.73;;;4.70;;
19599;SDS011;9947;57.722;12.012;2022-09-09T11:53:04;7.80;;;4.30;;
19599;SDS011;9947;57.722;12.012;2022-09-09T11:55:42;12.47;;;4.27;;
19599;SDS011;9947;57.722;12.012;2022-09-09T11:58:15;12.67;;;4.27;;
19599;SDS011;9947;57.722;12.012;2022-09-09T12:00:44;24.23;;;5.07;;
19599;SDS011;9947;57.722;12.012;2022-09-09T12:06:10;7.03;;;4.30;;
19599;SDS011;9947;57.722;12.012;2022-09-09T12:08:41;10.63;;;4.67;;
19599;SDS011;9947;57.722;12.012;2022-09-09T12:11:10;11.83;;;4.23;;
19599;SDS011;9947;57.722;12.012;2022-09-09T12:13:37;9.67;;;4.00;;
19599;SDS011;9947;57.722;12.012;2022-09-09T12:19:02;8.70;;;4.70;;
19599;SDS011;9947;57.722;12.012;2022-09-09T12:21:33;9.20;;;5.00;;
19599;SDS011;9947;57.722;12.012;2022-09-09T12:24:05;7.33;;;4.43;;
19599;SDS011;9947;57.722;12.012;2022-09-09T12:26:36;7.37;;;4.83;;
19599;SDS011;9947;57.722;12.012;2022-09-09T12:29:12;11.20;;;5.07;;
19599;SDS011;9947;57.722;12.012;2022-09-09T12:31:50;12.27;;;5.30;;
19599;SDS011;9947;57.722;12.012;2022-09-09T12:34:35;8.63;;;4.53;;
19599;SDS011;9947;57.722;12.012;2022-09-09T12:39:55;8.77;;;4.57;;
19599;SDS011;9947;57.722;12.012;2022-09-09T12:42:23;9.07;;;4.60;;
19599;SDS011;9947;57.722;12.012;2022-09-09T12:44:54;10.93;;;4.93;;
19599;SDS011;9947;57.722;12.012;2022-09-09T12:47:24;5.57;;;4.00;;
19599;SDS011;9947;57.722;12.012;2022-09-09T12:49:57;8.73;;;4.40;;
19599;SDS011;9947;57.722;12.012;2022-09-09T12:52:26;10.20;;;4.70;;
19599;SDS011;9947;57.722;12.012;2022-09-09T12:54:57;9.10;;;4.60;;
19599;SDS011;9947;57.722;12.012;2022-09-09T12:57:26;7.93;;;5.13;;
19599;SDS011;9947;57.722;12.012;2022-09-09T13:00:07;8.83;;;4.43;;
19599;SDS011;9947;57.722;12.012;2022-09-09T13:02:47;11.60;;;4.50;;
19599;SDS011;9947;57.722;12.012;2022-09-09T13:05:18;10.50;;;5.07;;
19599;SDS011;9947;57.722;12.012;2022-09-09T13:07:48;7.77;;;4.33;;
19599;SDS011;9947;57.722;12.012;2022-09-09T13:10:19;8.13;;;4.23;;
19599;SDS011;9947;57.722;12.012;2022-09-09T13:12:51;8.53;;;4.50;;
19599;SDS011;9947;57.722;12.012;2022-09-09T13:15:19;8.70;;;4.33;;
19599;SDS011;9947;57.722;12.012;2022-09-09T13:17:50;10.90;;;4.40;;
19599;SDS011;9947;57.722;12.012;2022-09-09T13:20:20;12.90;;;4.63;;
19599;SDS011;9947;57.722;12.012;2022-09-09T13:22:50;7.53;;;4.40;;
19599;SDS011;9947;57.722;12.012;2022-09-09T13:25:19;10.27;;;4.53;;
19599;SDS011;9947;57.722;12.012;2022-09-09T13:27:54;10.50;;;4.40;;
19599;SDS011;9947;57.722;12.012;2022-09-09T13:30:26;7.53;;;4.40;;
19599;SDS011;9947;57.722;12.012;2022-09-09T13:35:48;9.90;;;4.50;;
19599;SDS011;9947;57.722;12.012;2022-09-09T13:38:19;11.93;;;5.00;;
19599;SDS011;9947;57.722;12.012;2022-09-09T13:40:54;9.33;;;5.33;;
19599;SDS011;9947;57.722;12.012;2022-09-09T13:43:26;10.00;;;4.90;;
19599;SDS011;9947;57.722;12.012;2022-09-09T13:45:55;11.17;;;5.40;;
19599;SDS011;9947;57.722;12.012;2022-09-09T13:48:23;13.33;;;5.40;;
19599;SDS011;9947;57.722;12.012;2022-09-09T13:50:55;11.53;;;5.83;;
19599;SDS011;9947;57.722;12.012;2022-09-09T13:53:32;9.10;;;5.30;;
19599;SDS011;9947;57.722;12.012;2022-09-09T13:56:00;11.83;;;5.97;;
19599;SDS011;9947;57.722;12.012;2022-09-09T13:58:27;11.73;;;5.90;;
19599;SDS011;9947;57.722;12.012;2022-09-09T14:00:54;12.87;;;5.93;;
19599;SDS011;9947;57.722;12.012;2022-09-09T14:03:22;18.10;;;5.80;;
19599;SDS011;9947;57.722;12.012;2022-09-09T14:05:49;9.63;;;5.40;;
19599;SDS011;9947;57.722;12.012;2022-09-09T14:08:19;14.03;;;6.23;;
19599;SDS011;9947;57.722;12.012;2022-09-09T14:10:51;13.57;;;6.47;;
19599;SDS011;9947;57.722;12.012;2022-09-09T14:13:21;16.57;;;5.93;;
19599;SDS011;9947;57.722;12.012;2022-09-09T14:15:48;10.57;;;6.13;;
19599;SDS011;9947;57.722;12.012;2022-09-09T14:18:15;14.80;;;6.47;;
19599;SDS011;9947;57.722;12.012;2022-09-09T14:20:43;8.87;;;5.87;;
19599;SDS011;9947;57.722;12.012;2022-09-09T14:23:10;10.60;;;6.03;;
19599;SDS011;9947;57.722;12.012;2022-09-09T14:25:41;13.67;;;5.43;;
19599;SDS011;9947;57.722;12.012;2022-09-09T14:28:13;10.17;;;5.47;;
19599;SDS011;9947;57.722;12.012;2022-09-09T14:30:40;9.97;;;6.23;;
19599;SDS011;9947;57.722;12.012;2022-09-09T14:33:09;14.47;;;6.20;;
19599;SDS011;9947;57.722;12.012;2022-09-09T14:35:37;10.80;;;6.17;;
19599;SDS011;9947;57.722;12.012;2022-09-09T14:38:05;13.43;;;6.00;;
19599;SDS011;9947;57.722;12.012;2022-09-09T14:40:33;11.77;;;5.83;;
19599;SDS011;9947;57.722;12.012;2022-09-09T14:43:01;10.27;;;5.87;;
19599;SDS011;9947;57.722;12.012;2022-09-09T14:45:29;10.67;;;5.93;;
19599;SDS011;9947;57.722;12.012;2022-09-09T14:47:56;13.87;;;5.90;;
19599;SDS011;9947;57.722;12.012;2022-09-09T14:50:23;12.47;;;6.00;;
19599;SDS011;9947;57.722;12.012;2022-09-09T14:52:50;15.30;;;6.23;;
19599;SDS011;9947;57.722;12.012;2022-09-09T14:55:19;9.30;;;5.57;;
19599;SDS011;9947;57.722;12.012;2022-09-09T14:57:46;11.43;;;5.67;;
19599;SDS011;9947;57.722;12.012;2022-09-09T15:00:14;10.63;;;5.90;;
19599;SDS011;9947;57.722;12.012;2022-09-09T15:02:43;9.17;;;5.53;;
19599;SDS011;9947;57.722;12.012;2022-09-09T15:05:09;9.83;;;5.63;;
19599;SDS011;9947;57.722;12.012;2022-09-09T15:07:36;14.43;;;5.53;;
19599;SDS011;9947;57.722;12.012;2022-09-09T15:10:04;8.63;;;5.03;;
19599;SDS011;9947;57.722;12.012;2022-09-09T15:12:31;9.87;;;5.40;;
19599;SDS011;9947;57.722;12.012;2022-09-09T15:15:00;8.00;;;5.57;;
19599;SDS011;9947;57.722;12.012;2022-09-09T15:17:27;15.40;;;6.10;;
19599;SDS011;9947;57.722;12.012;2022-09-09T15:19:55;9.77;;;5.33;;
19599;SDS011;9947;57.722;12.012;2022-09-09T15:22:22;12.63;;;6.20;;